Time;durP1;ratioP1;P1;durP2;ratioP2;P2;SDS_P1;SDS_P2;PMS_P1;PMS_P2;Temp;Humidity;BMP_temperature;BMP_pressure;BME280_temperature;BME280_humidity;BME280_pressure;Samples;Min_cycle;Max_cycle;Signal;HPM_P1;HPM_P2
2023/04/05 00:01:33;;;;;;;21.30;7.93;;;10.50;70.20;;;;;;7379292;19;20012;-71
2023/04/05 00:04:02;;;;;;;16.02;7.85;;;10.50;70.60;;;;;;7380396;19;20480;-72
2023/04/05 00:06:34;;;;;;;20.05;8.30;;;10.40;70.70;;;;;;7380038;19;20041;-72
2023/04/05 00:09:04;;;;;;;17.30;7.68;;;10.40;70.70;;;;;;7379617;19;20069;-71
2023/04/05 00:11:34;;;;;;;24.15;9.02;;;10.40;70.70;;;;;;7378608;19;20058;-71
2023/04/05 00:14:04;;;;;;;20.20;7.82;;;10.40;70.70;;;;;;7399238;19;20023;-71
2023/04/05 00:16:33;;;;;;;17.27;8.68;;;10.40;70.80;;;;;;7378142;19;20014;-71
2023/04/05 00:19:02;;;;;;;17.48;9.00;;;10.40;70.80;;;;;;7379442;19;20295;-71
2023/04/05 00:21:34;;;;;;;19.23;8.82;;;10.40;70.80;;;;;;7379870;19;20096;-71
2023/04/05 00:24:02;;;;;;;21.70;9.30;;;10.40;71.20;;;;;;7379768;19;20102;-71
2023/04/05 00:26:31;;;;;;;17.42;8.48;;;10.40;71.00;;;;;;7378801;19;20002;-71
2023/04/05 00:29:00;;;;;;;18.17;8.15;;;10.30;70.80;;;;;;7399187;19;20052;-71
2023/04/05 00:31:30;;;;;;;14.40;7.85;;;10.30;70.70;;;;;;7376965;19;20369;-70
2023/04/05 00:33:58;;;;;;;24.27;8.50;;;10.30;70.70;;;;;;7377150;19;20139;-71
2023/04/05 00:36:27;;;;;;;20.38;8.98;;;10.30;70.70;;;;;;7377997;19;20006;-71
2023/04/05 00:39:00;;;;;;;16.05;8.27;;;10.30;70.70;;;;;;7379670;19;20006;-70
2023/04/05 00:41:29;;;;;;;15.85;8.10;;;10.30;70.70;;;;;;7379561;19;20075;-70
2023/04/05 00:43:58;;;;;;;16.65;9.02;;;10.30;71.00;;;;;;7401228;19;20027;-70
2023/04/05 00:46:28;;;;;;;16.90;8.35;;;10.30;71.00;;;;;;7377626;19;20049;-70
2023/04/05 00:48:57;;;;;;;17.58;8.82;;;10.20;71.10;;;;;;7376005;19;20532;-70
2023/04/05 00:51:26;;;;;;;19.75;8.23;;;10.30;71.20;;;;;;7376031;19;20002;-70
2023/04/05 00:53:55;;;;;;;19.45;9.38;;;10.20;71.10;;;;;;7375153;19;20006;-70
2023/04/05 00:56:27;;;;;;;16.63;9.05;;;10.30;71.20;;;;;;7398135;19;20006;-70
2023/04/05 00:58:56;;;;;;;17.73;8.95;;;10.30;71.20;;;;;;7376025;19;20007;-70
2023/04/05 01:01:27;;;;;;;21.95;8.95;;;10.20;71.20;;;;;;7375607;19;19999;-71
2023/04/05 01:04:01;;;;;;;23.88;9.43;;;10.20;71.30;;;;;;7375784;19;20002;-70
2023/04/05 01:07:00;;;;;;;21.33;10.20;;;10.20;71.60;;;;;;7377202;19;20002;-71
2023/04/05 01:09:38;;;;;;;19.70;8.55;;;10.20;71.80;;;;;;7376881;19;20009;-71
2023/04/05 01:12:13;;;;;;;22.05;8.98;;;10.10;71.60;;;;;;7376838;19;20035;-71
2023/04/05 01:14:49;;;;;;;23.13;9.82;;;10.00;71.60;;;;;;7376927;19;20031;-71
2023/04/05 01:17:20;;;;;;;22.55;8.57;;;10.00;71.80;;;;;;7393933;19;20120;-71
2023/04/05 01:19:52;;;;;;;21.15;9.73;;;9.90;71.80;;;;;;7374493;19;20058;-71
2023/04/05 01:22:36;;;;;;;;;;;9.90;72.10;;;;;;7375083;19;20272;-72
2023/04/05 01:25:22;;;;;;;24.83;9.32;;;9.80;72.40;;;;;;7377251;19;19966;-71
2023/04/05 01:28:11;;;;;;;24.05;9.35;;;9.80;72.40;;;;;;7379002;19;20082;-71
2023/04/05 01:30:45;;;;;;;31.83;10.32;;;9.60;72.80;;;;;;7378111;19;20016;-71
2023/04/05 01:33:18;;;;;;;23.10;9.65;;;9.60;72.80;;;;;;7378246;19;20381;-71
2023/04/05 01:35:54;;;;;;;17.83;9.00;;;9.50;72.70;;;;;;7379203;19;20026;-72
2023/04/05 01:38:26;;;;;;;17.10;8.73;;;9.50;72.60;;;;;;7400271;19;20023;-71
2023/04/05 01:40:56;;;;;;;15.77;8.95;;;9.50;72.90;;;;;;7378097;19;20006;-71
2023/04/05 01:43:24;;;;;;;20.50;8.60;;;9.50;73.00;;;;;;7376271;19;20348;-71
2023/04/05 01:45:56;;;;;;;18.52;8.82;;;9.50;73.20;;;;;;7375022;19;20397;-71
2023/04/05 01:48:24;;;;;;;20.67;9.60;;;9.60;73.10;;;;;;7375887;19;20364;-71
2023/04/05 01:50:53;;;;;;;21.13;8.88;;;9.60;73.70;;;;;;7376411;19;20010;-71
2023/04/05 01:53:22;;;;;;;23.42;9.43;;;9.60;73.10;;;;;;7397605;19;20010;-70
2023/04/05 01:55:51;;;;;;;22.02;9.65;;;9.50;72.80;;;;;;7377148;19;20063;-71
2023/04/05 01:58:20;;;;;;;20.65;8.98;;;9.40;72.70;;;;;;7375159;19;20014;-71
2023/04/05 02:00:49;;;;;;;20.92;9.18;;;9.40;72.60;;;;;;7375334;19;20006;-71
2023/04/05 02:03:20;;;;;;;26.55;10.20;;;9.40;72.90;;;;;;7375525;19;20103;-71
2023/04/05 02:05:49;;;;;;;28.13;10.18;;;9.40;73.10;;;;;;7373420;19;20010;-70
2023/04/05 02:08:17;;;;;;;22.23;10.23;;;9.30;73.60;;;;;;7393611;19;20155;-71
2023/04/05 02:10:47;;;;;;;24.23;9.82;;;9.30;73.50;;;;;;7373363;19;20084;-71
2023/04/05 02:13:15;;;;;;;22.52;9.55;;;9.40;73.50;;;;;;7373417;19;20007;-71
2023/04/05 02:15:50;;;;;;;28.30;9.80;;;9.40;73.00;;;;;;7374367;19;20020;-70
2023/04/05 02:18:28;;;;;;;16.83;9.63;;;9.30;72.80;;;;;;7374090;19;20003;-71
2023/04/05 02:21:03;;;;;;;27.83;10.50;;;9.30;72.90;;;;;;7374535;19;20003;-70
2023/04/05 02:23:32;;;;;;;23.80;10.05;;;9.30;73.20;;;;;;7373630;19;20010;-70
2023/04/05 02:26:02;;;;;;;24.38;9.98;;;9.30;72.90;;;;;;7394038;19;20024;-71
2023/04/05 02:28:30;;;;;;;26.10;12.80;;;9.20;73.30;;;;;;7373345;19;20014;-71
2023/04/05 02:30:59;;;;;;;20.65;10.60;;;9.30;73.80;;;;;;7379630;19;20007;-71
2023/04/05 02:33:30;;;;;;;26.75;10.35;;;9.20;73.60;;;;;;7379315;19;20595;-71
2023/04/05 02:36:00;;;;;;;25.60;10.38;;;9.20;73.60;;;;;;7382226;19;20246;-71
2023/04/05 02:38:28;;;;;;;23.77;9.80;;;9.20;73.70;;;;;;7378325;19;20007;-71
2023/04/05 02:40:57;;;;;;;19.83;10.27;;;9.20;73.90;;;;;;7399516;19;20197;-71
2023/04/05 02:43:26;;;;;;;23.92;10.25;;;9.20;73.90;;;;;;7378133;19;20006;-71
2023/04/05 02:45:54;;;;;;;23.85;10.38;;;9.10;74.10;;;;;;7381755;19;20369;-70
2023/04/05 02:48:23;;;;;;;23.05;10.40;;;9.10;74.10;;;;;;7382642;19;20026;-70
2023/04/05 02:50:54;;;;;;;20.55;10.05;;;9.00;74.00;;;;;;7380773;19;20019;-70
2023/04/05 02:53:23;;;;;;;22.45;9.65;;;9.00;73.80;;;;;;7402975;19;20007;-71
2023/04/05 02:55:55;;;;;;;24.17;10.52;;;9.00;73.80;;;;;;7380057;19;20019;-71
2023/04/05 02:58:24;;;;;;;22.40;10.80;;;8.90;73.60;;;;;;7380745;19;20412;-71
2023/04/05 03:00:54;;;;;;;22.13;10.55;;;8.90;73.60;;;;;;7404993;19;20207;-71
2023/04/05 03:03:25;;;;;;;29.70;10.80;;;8.90;73.90;;;;;;7360210;19;20026;-71
2023/04/05 03:06:08;;;;;;;25.15;10.20;;;8.80;74.20;;;;;;7383468;19;20031;-71
2023/04/05 03:08:42;;;;;;;22.00;9.95;;;8.80;73.80;;;;;;7384570;19;20293;-71
2023/04/05 03:11:12;;;;;;;26.92;10.68;;;8.70;74.60;;;;;;7383082;19;20022;-71
2023/04/05 03:13:40;;;;;;;23.17;10.05;;;8.70;74.10;;;;;;7381652;19;20007;-71
2023/04/05 03:16:09;;;;;;;28.75;10.45;;;8.70;74.10;;;;;;7404369;19;20007;-70
2023/04/05 03:18:38;;;;;;;27.80;10.65;;;8.60;73.80;;;;;;7382162;19;20023;-70
2023/04/05 03:21:11;;;;;;;24.27;10.10;;;8.60;73.70;;;;;;7381488;19;20095;-70
2023/04/05 03:23:39;;;;;;;20.70;10.75;;;8.60;73.80;;;;;;7380953;19;20006;-70
2023/04/05 03:26:09;;;;;;;23.05;10.23;;;8.60;74.10;;;;;;7382237;19;20007;-71
2023/04/05 03:28:37;;;;;;;30.00;11.48;;;8.60;74.10;;;;;;7381445;19;20019;-71
2023/04/05 03:31:06;;;;;;;29.25;11.25;;;8.60;74.00;;;;;;7400256;19;20718;-71
2023/04/05 03:33:35;;;;;;;24.83;11.20;;;8.60;73.70;;;;;;7380962;19;20019;-70
2023/04/05 03:36:04;;;;;;;24.98;11.20;;;8.60;74.00;;;;;;7381315;19;20003;-71
2023/04/05 03:38:36;;;;;;;21.58;11.68;;;8.60;74.10;;;;;;7381518;19;20002;-71
2023/04/05 03:41:05;;;;;;;26.90;11.60;;;8.50;74.40;;;;;;7379655;19;20384;-71
2023/04/05 03:43:34;;;;;;;27.42;11.13;;;8.50;74.70;;;;;;7379793;19;20011;-71
2023/04/05 03:46:03;;;;;;;29.40;12.52;;;8.40;74.80;;;;;;7402008;19;20002;-71
2023/04/05 03:48:32;;;;;;;29.48;11.88;;;8.30;75.00;;;;;;7380549;19;20099;-71
2023/04/05 03:51:01;;;;;;;24.90;10.63;;;8.30;75.30;;;;;;7380690;19;20020;-71
2023/04/05 03:53:30;;;;;;;33.22;12.25;;;8.30;75.50;;;;;;7379673;19;19999;-71
2023/04/05 03:56:01;;;;;;;24.50;10.73;;;8.20;74.70;;;;;;7381317;19;20066;-70
2023/04/05 03:58:30;;;;;;;24.77;10.85;;;8.10;74.70;;;;;;7380642;19;20066;-70
2023/04/05 04:00:58;;;;;;;27.02;11.73;;;8.20;74.90;;;;;;7403179;19;20015;-70
2023/04/05 04:03:27;;;;;;;26.02;10.77;;;8.10;74.80;;;;;;7382639;19;20078;-70
2023/04/05 04:05:56;;;;;;;24.08;11.30;;;8.10;75.00;;;;;;7381413;19;20105;-71
2023/04/05 04:08:25;;;;;;;23.70;10.25;;;8.20;75.20;;;;;;7379038;19;20063;-71
2023/04/05 04:10:53;;;;;;;24.00;11.00;;;8.20;75.20;;;;;;7380877;19;20002;-70
2023/04/05 04:13:25;;;;;;;24.67;10.25;;;8.20;75.30;;;;;;7386085;19;20058;-71
2023/04/05 04:15:54;;;;;;;28.55;12.13;;;8.30;75.50;;;;;;7402493;19;20035;-70
2023/04/05 04:18:23;;;;;;;26.40;12.02;;;8.30;75.60;;;;;;7383757;19;20010;-70
2023/04/05 04:20:51;;;;;;;25.50;11.43;;;8.30;75.50;;;;;;7382165;19;20036;-70
2023/04/05 04:23:20;;;;;;;30.17;10.68;;;8.30;75.50;;;;;;7381803;19;20007;-71
2023/04/05 04:25:53;;;;;;;26.90;12.15;;;8.30;75.30;;;;;;7380738;19;20018;-70
2023/04/05 04:28:26;;;;;;;34.78;12.40;;;8.30;75.50;;;;;;7389725;19;20030;-71
2023/04/05 04:30:55;;;;;;;25.50;12.18;;;8.30;75.50;;;;;;7399450;19;20265;-70
2023/04/05 04:33:24;;;;;;;25.50;11.23;;;8.30;75.50;;;;;;7380115;19;20020;-71
2023/04/05 04:35:53;;;;;;;27.15;11.57;;;8.30;75.30;;;;;;7381946;19;20414;-71
2023/04/05 04:38:24;;;;;;;25.77;12.07;;;8.30;75.20;;;;;;7383091;19;20031;-71
2023/04/05 04:40:53;;;;;;;26.00;12.50;;;8.40;76.30;;;;;;7383198;19;20007;-71
2023/04/05 04:43:25;;;;;;;25.38;11.43;;;8.30;75.50;;;;;;7390590;19;20411;-71
2023/04/05 04:45:54;;;;;;;33.05;12.05;;;8.30;75.50;;;;;;7400495;19;20066;-71
2023/04/05 04:48:23;;;;;;;30.45;11.65;;;8.30;75.00;;;;;;7378586;19;20263;-71
2023/04/05 04:50:51;;;;;;;23.42;12.00;;;8.30;75.00;;;;;;7378722;19;20028;-72
2023/04/05 04:53:21;;;;;;;26.45;12.07;;;8.30;75.10;;;;;;7377944;19;20024;-70
2023/04/05 04:55:49;;;;;;;21.02;10.80;;;8.20;75.70;;;;;;7376745;19;20010;-70
2023/04/05 04:58:19;;;;;;;32.08;12.35;;;8.20;75.60;;;;;;7399890;19;20013;-71
2023/04/05 05:00:51;;;;;;;24.25;11.32;;;8.20;75.60;;;;;;7377877;19;20014;-71
2023/04/05 05:03:21;;;;;;;27.52;12.57;;;8.20;75.90;;;;;;7378120;19;20014;-71
2023/04/05 05:05:52;;;;;;;26.20;11.48;;;8.20;75.90;;;;;;7379253;19;20389;-73
2023/04/05 05:08:21;;;;;;;33.50;11.88;;;8.20;75.60;;;;;;7379700;19;20007;-72
2023/04/05 05:10:52;;;;;;;31.42;13.25;;;8.10;75.20;;;;;;7378381;19;20003;-72
2023/04/05 05:13:21;;;;;;;30.90;13.27;;;8.10;75.20;;;;;;7399321;19;20017;-72
2023/04/05 05:15:53;;;;;;;29.75;14.02;;;8.00;75.30;;;;;;7403339;19;20015;-73
2023/04/05 05:18:22;;;;;;;28.52;13.27;;;8.00;75.60;;;;;;7382519;19;20014;-74
2023/04/05 05:20:53;;;;;;;24.58;12.02;;;7.90;75.60;;;;;;7382269;19;20024;-75
2023/04/05 05:23:24;;;;;;;31.25;12.15;;;8.00;75.80;;;;;;7380948;19;20223;-75
2023/04/05 05:25:58;;;;;;;30.15;12.23;;;8.00;75.80;;;;;;7381491;19;20010;-73
2023/04/05 05:28:27;;;;;;;25.77;11.52;;;8.00;76.10;;;;;;7381083;19;20028;-72
2023/04/05 05:30:59;;;;;;;34.53;12.90;;;8.00;76.50;;;;;;7403030;19;20028;-73
2023/04/05 05:33:28;;;;;;;25.85;12.68;;;8.00;76.70;;;;;;7382906;19;20016;-73
2023/04/05 05:35:57;;;;;;;26.98;12.35;;;7.90;76.40;;;;;;7385149;19;20003;-73
2023/04/05 05:38:25;;;;;;;24.77;12.52;;;7.90;76.30;;;;;;7383219;19;20214;-74
2023/04/05 05:40:57;;;;;;;29.10;13.43;;;7.90;76.40;;;;;;7380323;19;20020;-73
2023/04/05 05:43:26;;;;;;;37.47;13.77;;;7.80;76.40;;;;;;7379049;19;20028;-74
2023/04/05 05:45:57;;;;;;;37.17;13.65;;;7.80;76.70;;;;;;7399749;19;20011;-75
2023/04/05 05:48:28;;;;;;;35.40;13.57;;;7.90;76.80;;;;;;7379850;19;20247;-74
2023/04/05 05:51:00;;;;;;;34.58;14.15;;;7.90;76.70;;;;;;7401019;19;20019;-73
2023/04/05 05:53:29;;;;;;;29.45;14.00;;;7.80;76.70;;;;;;7360775;19;20007;-73
2023/04/05 05:55:57;;;;;;;32.60;14.05;;;7.90;76.70;;;;;;7380003;19;20011;-74
2023/04/05 05:58:26;;;;;;;39.80;13.13;;;7.90;76.70;;;;;;7379134;19;20007;-75
2023/04/05 06:00:55;;;;;;;32.83;13.00;;;7.90;76.90;;;;;;7378461;19;20100;-74
2023/04/05 06:03:24;;;;;;;31.45;13.85;;;8.00;77.10;;;;;;7403559;19;20011;-74
2023/04/05 06:05:57;;;;;;;28.33;12.85;;;8.00;77.50;;;;;;7389027;19;20002;-74
2023/04/05 06:08:26;;;;;;;29.05;13.65;;;8.00;77.00;;;;;;7390072;19;20003;-74
2023/04/05 06:10:55;;;;;;;33.38;13.60;;;8.10;77.00;;;;;;7390202;19;20398;-74
2023/04/05 06:13:24;;;;;;;27.25;13.80;;;8.00;77.10;;;;;;7388796;19;19999;-74
2023/04/05 06:15:53;;;;;;;30.85;14.05;;;8.00;77.40;;;;;;7387309;19;20007;-74
2023/04/05 06:18:22;;;;;;;39.83;15.35;;;8.00;77.20;;;;;;7409297;19;20282;-74
2023/04/05 06:20:51;;;;;;;34.03;15.13;;;8.10;78.00;;;;;;7386787;19;20018;-74
2023/04/05 06:23:22;;;;;;;33.88;15.50;;;8.10;78.70;;;;;;7386373;19;20060;-74
2023/04/05 06:25:50;;;;;;;29.25;13.48;;;8.10;78.70;;;;;;7386412;19;20007;-74
2023/04/05 06:28:19;;;;;;;31.30;15.25;;;8.10;78.50;;;;;;7391297;19;20023;-74
2023/04/05 06:30:48;;;;;;;31.17;14.82;;;8.10;78.40;;;;;;7388850;19;20074;-74
2023/04/05 06:33:17;;;;;;;37.17;15.80;;;8.20;78.60;;;;;;7412837;19;20010;-74
2023/04/05 06:35:45;;;;;;;32.88;15.38;;;8.10;77.70;;;;;;7388682;19;20023;-74
2023/04/05 06:38:14;;;;;;;39.83;16.35;;;8.20;78.10;;;;;;7388058;19;20020;-74
2023/04/05 06:40:45;;;;;;;32.13;15.55;;;8.10;77.80;;;;;;7386086;19;20002;-74
2023/04/05 06:43:14;;;;;;;34.65;16.50;;;8.20;78.00;;;;;;7386819;19;20016;-74
2023/04/05 06:45:44;;;;;;;32.60;15.68;;;8.20;78.60;;;;;;7386737;19;20034;-74
2023/04/05 06:48:13;;;;;;;37.78;15.95;;;8.40;78.80;;;;;;7412067;19;20007;-74
2023/04/05 06:50:41;;;;;;;34.80;16.27;;;8.40;78.70;;;;;;7389458;19;20042;-74
2023/04/05 06:53:12;;;;;;;33.72;15.85;;;8.50;78.60;;;;;;7387126;19;19998;-74
2023/04/05 06:55:41;;;;;;;35.40;16.30;;;8.50;78.20;;;;;;7386515;19;20006;-74
2023/04/05 06:58:12;;;;;;;33.83;15.60;;;8.60;77.70;;;;;;7386313;19;20404;-74
2023/04/05 07:00:41;;;;;;;36.30;17.08;;;8.70;77.70;;;;;;7384239;19;20066;-74
2023/04/05 07:03:09;;;;;;;38.00;17.10;;;8.70;78.20;;;;;;7407771;19;20007;-74
2023/04/05 07:05:38;;;;;;;36.55;17.02;;;8.70;78.50;;;;;;7382847;19;20302;-74
2023/04/05 07:08:08;;;;;;;46.53;19.05;;;8.70;78.70;;;;;;7384392;19;20015;-74
2023/04/05 07:10:36;;;;;;;48.67;19.20;;;8.80;78.90;;;;;;7385602;19;20013;-74
2023/04/05 07:13:05;;;;;;;39.08;18.33;;;8.80;78.50;;;;;;7385373;19;20085;-74
2023/04/05 07:15:37;;;;;;;40.30;18.33;;;8.90;78.20;;;;;;7380200;19;20023;-74
2023/04/05 07:18:07;;;;;;;44.75;19.05;;;9.00;78.30;;;;;;7406423;19;19999;-74
2023/04/05 07:20:36;;;;;;;48.90;18.63;;;9.00;78.10;;;;;;7384232;19;20015;-73
2023/04/05 07:23:05;;;;;;;40.85;18.55;;;9.10;77.80;;;;;;7384336;19;20024;-74
2023/04/05 07:25:34;;;;;;;43.72;19.65;;;9.20;77.80;;;;;;7383801;19;20369;-74
2023/04/05 07:28:02;;;;;;;40.28;19.30;;;9.10;78.00;;;;;;7385200;19;19998;-73
2023/04/05 07:30:32;;;;;;;36.60;18.40;;;9.20;78.10;;;;;;7393089;19;20020;-73
2023/04/05 07:33:04;;;;;;;39.28;18.88;;;9.20;77.90;;;;;;7410992;19;20413;-73
2023/04/05 07:35:33;;;;;;;49.92;18.55;;;9.30;78.00;;;;;;7388229;19;20007;-74
2023/04/05 07:38:01;;;;;;;38.83;18.08;;;9.30;78.00;;;;;;7387352;19;20011;-73
2023/04/05 07:40:37;;;;;;;43.50;18.02;;;9.40;78.20;;;;;;7386019;19;20050;-74
2023/04/05 07:43:06;;;;;;;35.20;18.77;;;9.50;77.90;;;;;;7387283;19;20035;-73
2023/04/05 07:45:34;;;;;;;43.17;18.30;;;9.50;78.00;;;;;;7385582;19;20007;-73
2023/04/05 07:48:06;;;;;;;40.80;18.02;;;9.50;77.90;;;;;;7407897;19;20361;-73
2023/04/05 07:50:38;;;;;;;38.47;19.95;;;9.60;78.00;;;;;;7383719;19;19999;-74
2023/04/05 07:53:07;;;;;;;41.17;18.65;;;9.60;78.10;;;;;;7384225;19;19998;-75
2023/04/05 07:55:38;;;;;;;41.13;18.13;;;9.70;78.20;;;;;;7384425;19;20380;-73
2023/04/05 07:58:09;;;;;;;35.40;17.17;;;9.80;78.10;;;;;;7383255;19;20003;-73
2023/04/05 08:00:38;;;;;;;39.13;17.63;;;9.90;77.70;;;;;;7385389;19;20006;-74
2023/04/05 08:03:09;;;;;;;37.28;16.90;;;10.00;77.40;;;;;;7408924;19;20007;-74
2023/04/05 08:05:38;;;;;;;38.70;15.52;;;10.20;77.20;;;;;;7384961;19;20015;-74
2023/04/05 08:08:09;;;;;;;31.45;15.20;;;10.20;76.80;;;;;;7382848;19;20330;-74
2023/04/05 08:10:40;;;;;;;31.08;13.10;;;10.20;75.90;;;;;;7383445;19;20006;-73
2023/04/05 08:13:09;;;;;;;29.80;12.75;;;10.20;74.00;;;;;;7383755;19;20011;-73
2023/04/05 08:15:38;;;;;;;33.45;12.90;;;10.40;74.20;;;;;;7380897;19;20405;-73
2023/04/05 08:18:09;;;;;;;27.95;12.50;;;10.50;73.60;;;;;;7403818;19;20232;-73
2023/04/05 08:20:39;;;;;;;;;;;10.60;72.00;;;;;;7383170;19;20368;-74
2023/04/05 08:23:08;;;;;;;27.50;11.27;;;10.60;70.20;;;;;;7382354;19;19906;-74
2023/04/05 08:25:36;;;;;;;29.00;11.07;;;10.70;69.70;;;;;;7381498;19;20002;-74
2023/04/05 08:28:05;;;;;;;26.83;11.55;;;10.60;69.30;;;;;;7382290;19;20023;-74
2023/04/05 08:30:34;;;;;;;31.65;11.07;;;10.70;68.60;;;;;;7381096;19;20007;-74
2023/04/05 08:33:03;;;;;;;26.55;11.55;;;10.60;68.30;;;;;;7402162;19;20007;-74
2023/04/05 08:35:37;;;;;;;21.90;10.57;;;10.70;69.00;;;;;;7382267;19;20373;-74
2023/04/05 08:38:06;;;;;;;24.92;10.10;;;10.90;69.50;;;;;;7381442;19;20011;-74
2023/04/05 08:40:42;;;;;;;22.33;10.05;;;11.00;69.10;;;;;;7382581;19;20007;-75
2023/04/05 08:43:16;;;;;;;23.70;8.00;;;11.00;67.20;;;;;;7381658;19;20006;-74
2023/04/05 08:45:49;;;;;;;21.52;9.38;;;10.90;64.30;;;;;;7382469;19;20240;-75
2023/04/05 08:48:18;;;;;;;15.73;7.88;;;10.90;64.70;;;;;;7406043;19;20055;-75
2023/04/05 08:50:55;;;;;;;19.00;7.60;;;10.90;64.10;;;;;;7387328;19;20011;-74
2023/04/05 08:53:24;;;;;;;16.40;7.40;;;10.90;61.30;;;;;;7389511;19;20019;-74
2023/04/05 08:55:56;;;;;;;15.20;7.72;;;10.90;60.90;;;;;;7385834;19;20006;-75
2023/04/05 08:58:26;;;;;;;19.27;8.25;;;10.90;61.00;;;;;;7384101;19;20035;-73
2023/04/05 09:00:59;;;;;;;17.52;8.23;;;10.90;61.30;;;;;;7385581;19;20013;-74
2023/04/05 09:03:32;;;;;;;22.13;8.68;;;11.00;61.60;;;;;;7404101;19;20027;-73
2023/04/05 09:06:10;;;;;;;16.05;7.55;;;10.80;60.10;;;;;;7380611;19;20260;-73
2023/04/05 09:08:40;;;;;;;15.88;7.50;;;10.90;60.00;;;;;;7382177;19;20234;-73
2023/04/05 09:11:09;;;;;;;18.52;8.27;;;10.90;59.60;;;;;;7382406;19;20002;-73
2023/04/05 09:13:37;;;;;;;22.15;8.70;;;10.90;58.60;;;;;;7383936;19;20015;-74
2023/04/05 09:16:07;;;;;;;22.13;9.52;;;11.00;59.70;;;;;;7386851;19;20023;-73
2023/04/05 09:18:36;;;;;;;19.90;8.75;;;11.20;59.50;;;;;;7384363;19;20024;-74
2023/04/05 09:21:09;;;;;;;18.98;9.23;;;11.20;59.50;;;;;;7405934;19;20255;-74
2023/04/05 09:23:38;;;;;;;25.17;9.95;;;11.30;60.00;;;;;;7382398;19;20389;-73
2023/04/05 09:26:20;;;;;;;23.42;9.38;;;11.30;59.60;;;;;;7381637;19;20007;-73
2023/04/05 09:28:49;;;;;;;21.30;10.02;;;11.00;59.70;;;;;;7382259;19;20003;-73
2023/04/05 09:31:34;;;;;;;21.85;10.05;;;11.00;60.30;;;;;;7382763;19;20075;-73
2023/04/05 09:34:05;;;;;;;20.05;9.80;;;10.90;61.40;;;;;;7382239;19;20027;-74
2023/04/05 09:36:45;;;;;;;24.58;10.20;;;11.20;61.60;;;;;;7381901;19;20227;-73
2023/04/05 09:39:15;;;;;;;21.20;10.30;;;11.30;61.50;;;;;;7405351;19;20062;-73
2023/04/05 09:41:43;;;;;;;24.02;10.15;;;11.30;60.20;;;;;;7388290;19;19999;-73
2023/04/05 09:44:12;;;;;;;27.95;10.05;;;11.40;60.80;;;;;;7388197;19;20006;-73
2023/04/05 09:46:41;;;;;;;26.30;9.40;;;11.40;60.00;;;;;;7386625;19;20264;-73
2023/04/05 09:49:09;;;;;;;22.98;10.23;;;11.50;59.90;;;;;;7388369;19;20405;-73
2023/04/05 09:51:41;;;;;;;28.33;9.50;;;11.50;60.10;;;;;;7388622;19;20028;-73
2023/04/05 09:54:12;;;;;;;20.70;9.55;;;11.40;59.40;;;;;;7412393;19;20027;-73
2023/04/05 09:56:42;;;;;;;19.15;9.10;;;11.50;59.00;;;;;;7391333;19;20017;-73
2023/04/05 09:59:13;;;;;;;20.90;8.13;;;11.50;58.80;;;;;;7391178;19;20010;-74
2023/04/05 10:01:46;;;;;;;17.13;8.25;;;11.50;57.60;;;;;;7393432;19;20034;-74
2023/04/05 10:04:14;;;;;;;15.43;8.27;;;11.40;57.50;;;;;;7391448;19;20030;-73
2023/04/05 10:06:46;;;;;;;18.02;8.77;;;11.30;56.90;;;;;;7385572;19;20003;-73
2023/04/05 10:09:16;;;;;;;20.30;8.18;;;11.50;57.50;;;;;;7408499;19;20369;-72
2023/04/05 10:11:46;;;;;;;20.97;8.17;;;11.60;57.30;;;;;;7386293;19;20401;-73
2023/04/05 10:14:16;;;;;;;24.13;8.63;;;11.60;57.90;;;;;;7386747;19;20235;-73
2023/04/05 10:16:53;;;;;;;16.38;8.35;;;11.70;57.60;;;;;;7386660;19;20052;-73
2023/04/05 10:19:29;;;;;;;18.98;8.75;;;11.80;56.30;;;;;;7386443;19;20011;-73
2023/04/05 10:22:04;;;;;;;22.55;8.38;;;11.80;55.30;;;;;;7384492;19;20003;-74
2023/04/05 10:24:39;;;;;;;16.55;8.32;;;11.90;56.30;;;;;;7385249;19;20003;-74
2023/04/05 10:27:14;;;;;;;16.58;7.80;;;12.00;56.20;;;;;;7406073;19;20027;-74
2023/04/05 10:29:52;;;;;;;19.20;9.40;;;12.10;56.60;;;;;;7385043;19;20066;-73
2023/04/05 10:32:31;;;;;;;19.10;9.13;;;12.10;55.90;;;;;;7386232;19;20070;-74
2023/04/05 10:35:09;;;;;;;20.63;7.47;;;12.20;56.30;;;;;;7386872;19;20019;-73
2023/04/05 10:37:51;;;;;;;17.38;8.48;;;12.10;54.90;;;;;;7387133;19;20010;-73
2023/04/05 10:40:22;;;;;;;;;;;12.00;54.90;;;;;;7387365;19;20002;-73
2023/04/05 10:42:52;;;;;;;14.45;7.90;;;12.10;54.20;;;;;;7387046;19;19937;-73
2023/04/05 10:45:22;;;;;;;16.23;8.27;;;12.20;53.60;;;;;;7405400;19;20006;-73
2023/04/05 10:47:56;;;;;;;19.05;8.80;;;12.20;55.10;;;;;;7385595;19;20007;-73
2023/04/05 10:50:26;;;;;;;18.10;7.93;;;12.10;53.80;;;;;;7384544;19;20013;-72
2023/04/05 10:52:59;;;;;;;19.70;8.23;;;12.10;54.30;;;;;;7385861;19;20011;-73
2023/04/05 10:55:28;;;;;;;16.42;7.95;;;12.20;53.90;;;;;;7385489;19;19999;-74
2023/04/05 10:57:58;;;;;;;17.75;7.78;;;12.30;53.70;;;;;;7385822;19;20078;-74
2023/04/05 11:00:27;;;;;;;19.40;8.48;;;12.40;53.40;;;;;;7407597;19;20010;-73
2023/04/05 11:02:57;;;;;;;18.55;7.45;;;12.60;53.70;;;;;;7385533;19;20091;-74
2023/04/05 11:05:34;;;;;;;15.48;7.53;;;12.60;52.20;;;;;;7385934;19;20393;-73
2023/04/05 11:08:09;;;;;;;17.10;8.07;;;12.70;52.90;;;;;;7384859;19;20005;-73
2023/04/05 11:10:39;;;;;;;19.67;7.80;;;12.80;54.00;;;;;;7385774;19;20030;-73
2023/04/05 11:13:10;;;;;;;18.17;7.68;;;12.90;54.30;;;;;;7387499;19;20003;-74
2023/04/05 11:15:40;;;;;;;15.75;7.93;;;13.00;53.40;;;;;;7389510;19;20015;-73
2023/04/05 11:18:10;;;;;;;15.85;8.02;;;13.10;53.10;;;;;;7411139;19;20007;-73
2023/04/05 11:20:50;;;;;;;16.15;8.25;;;13.10;53.10;;;;;;7388553;19;20003;-74
2023/04/05 11:23:23;;;;;;;19.63;8.45;;;13.20;53.00;;;;;;7384058;19;20006;-74
2023/04/05 11:25:54;;;;;;;18.20;7.97;;;13.20;53.10;;;;;;7384537;19;20072;-74
2023/04/05 11:28:38;;;;;;;14.68;8.57;;;13.20;53.20;;;;;;7384582;19;20095;-74
2023/04/05 11:31:16;;;;;;;19.60;8.52;;;13.40;52.70;;;;;;7383085;19;20389;-74
2023/04/05 11:34:09;;;;;;;18.70;8.75;;;13.40;53.10;;;;;;7384207;19;20365;-75
2023/04/05 11:36:44;;;;;;;18.67;8.82;;;13.50;52.30;;;;;;7384488;19;20027;-73
2023/04/05 11:39:30;;;;;;;22.23;9.18;;;13.60;51.90;;;;;;7405931;19;20058;-74
2023/04/05 11:42:03;;;;;;;21.75;9.32;;;13.60;52.20;;;;;;7383894;19;20401;-74
2023/04/05 11:44:40;;;;;;;18.67;9.20;;;13.70;52.40;;;;;;7383775;19;20012;-74
2023/04/05 11:47:10;;;;;;;28.13;9.70;;;13.70;53.30;;;;;;7383625;19;20358;-74
2023/04/05 11:49:40;;;;;;;20.17;10.18;;;13.80;53.20;;;;;;7384610;19;20003;-74
2023/04/05 11:52:14;;;;;;;18.37;9.60;;;13.80;52.30;;;;;;7384092;19;20070;-74
2023/04/05 11:54:49;;;;;;;23.08;9.98;;;13.60;53.30;;;;;;7383702;19;20252;-73
2023/04/05 11:57:21;;;;;;;20.38;9.10;;;13.60;53.00;;;;;;7405380;19;20006;-73
2023/04/05 11:59:52;;;;;;;17.85;9.40;;;13.60;53.40;;;;;;7382604;19;20248;-73
2023/04/05 12:02:21;;;;;;;24.10;9.98;;;13.80;53.30;;;;;;7380462;19;20066;-73
2023/04/05 12:04:55;;;;;;;25.27;10.25;;;14.00;53.70;;;;;;7382037;19;20006;-73
2023/04/05 12:07:27;;;;;;;22.48;10.23;;;13.70;53.40;;;;;;7381993;19;20075;-73
2023/04/05 12:10:14;;;;;;;20.83;9.65;;;13.80;53.50;;;;;;7383197;19;20003;-73
2023/04/05 12:12:46;;;;;;;18.10;10.45;;;13.90;52.70;;;;;;7383342;19;20014;-73
2023/04/05 12:15:17;;;;;;;27.20;10.93;;;13.90;52.50;;;;;;7404820;19;20010;-73
2023/04/05 12:17:48;;;;;;;23.58;9.95;;;13.90;52.70;;;;;;7382046;19;20019;-73
2023/04/05 12:20:19;;;;;;;22.67;10.25;;;13.90;52.60;;;;;;7381861;19;20224;-74
2023/04/05 12:22:51;;;;;;;20.13;10.07;;;14.00;52.20;;;;;;7382755;19;20011;-75
2023/04/05 12:25:23;;;;;;;22.73;11.23;;;14.00;52.70;;;;;;7382769;19;20006;-74
2023/04/05 12:27:52;;;;;;;24.77;10.90;;;14.10;53.00;;;;;;7382433;19;20292;-74
2023/04/05 12:30:22;;;;;;;25.08;10.88;;;14.20;52.60;;;;;;7403007;19;20010;-74
2023/04/05 12:32:53;;;;;;;25.00;11.38;;;14.20;53.20;;;;;;7382226;19;20062;-74
2023/04/05 12:35:25;;;;;;;28.02;11.13;;;14.30;52.10;;;;;;7381938;19;20264;-74
2023/04/05 12:37:54;;;;;;;21.90;10.93;;;14.40;52.00;;;;;;7384924;19;20002;-74
2023/04/05 12:40:26;;;;;;;25.10;11.15;;;14.50;51.80;;;;;;7384295;19;20284;-74
2023/04/05 12:43:02;;;;;;;24.23;11.80;;;14.50;52.20;;;;;;7385094;19;19998;-74
2023/04/05 12:45:38;;;;;;;25.52;10.68;;;14.50;52.90;;;;;;7392234;19;20027;-75
2023/04/05 12:48:11;;;;;;;16.13;9.25;;;14.70;53.10;;;;;;7404262;19;20014;-74
2023/04/05 12:50:45;;;;;;;23.98;11.25;;;14.80;52.20;;;;;;7380887;19;20024;-74
2023/04/05 12:53:19;;;;;;;29.73;11.00;;;14.80;52.10;;;;;;7381539;19;19998;-74
2023/04/05 12:55:53;;;;;;;31.35;13.65;;;14.90;52.80;;;;;;7381567;19;19999;-73
2023/04/05 12:58:24;;;;;;;32.47;12.15;;;14.90;52.70;;;;;;7382210;19;20020;-74